Time;durP1;ratioP1;P1;durP2;ratioP2;P2;SDS_P1;SDS_P2;PMS_P1;PMS_P2;Temp;Humidity;BMP_temperature;BMP_pressure;BME280_temperature;BME280_humidity;BME280_pressure;Samples;Min_cycle;Max_cycle;Signal;HPM_P1;HPM_P2
2023/03/24 00:01:56;;;;;;;6.50;1.80;;;;;;;;;;5065926;28;20096;-72
2023/03/24 00:04:23;;;;;;;3.45;2.08;;;;;;;;;;5065559;28;20040;-72
2023/03/24 00:06:49;;;;;;;2.25;1.40;;;;;;;;;;5065901;28;20028;-72
2023/03/24 00:09:15;;;;;;;2.75;1.75;;;;;;;;;;5065373;28;20780;-72
2023/03/24 00:11:42;;;;;;;6.07;1.35;;;;;;;;;;5065736;28;20123;-73
2023/03/24 00:14:10;;;;;;;3.10;1.83;;;;;;;;;;5065181;28;20490;-72
2023/03/24 00:16:41;;;;;;;2.88;1.70;;;;;;;;;;5062543;28;20064;-72
2023/03/24 00:19:08;;;;;;;2.63;1.77;;;;;;;;;;5063766;28;20028;-72
2023/03/24 00:21:33;;;;;;;2.25;1.38;;;;;;;;;;5065469;28;20033;-73
2023/03/24 00:24:00;;;;;;;3.50;1.80;;;;;;;;;;5062656;28;20035;-73
2023/03/24 00:26:27;;;;;;;2.67;1.45;;;;;;;;;;5063569;28;20123;-73
2023/03/24 00:28:53;;;;;;;4.13;2.17;;;;;;;;;;5064608;28;20024;-73
2023/03/24 00:31:19;;;;;;;4.43;1.90;;;;;;;;;;5063795;28;20047;-73
2023/03/24 00:33:49;;;;;;;3.50;1.73;;;;;;;;;;5063454;28;20111;-73
2023/03/24 00:36:17;;;;;;;1.88;1.38;;;;;;;;;;5063605;28;20554;-73
2023/03/24 00:38:42;;;;;;;3.13;1.80;;;;;;;;;;5064444;28;20610;-72
2023/03/24 00:41:12;;;;;;;2.50;1.52;;;;;;;;;;5065083;28;20560;-72
2023/03/24 00:43:38;;;;;;;2.78;2.10;;;;;;;;;;5063043;28;20052;-73
2023/03/24 00:46:09;;;;;;;4.47;1.80;;;;;;;;;;5060643;28;20481;-73
2023/03/24 00:48:37;;;;;;;1.80;1.23;;;;;;;;;;5065727;28;20060;-73
2023/03/24 00:51:04;;;;;;;1.67;1.17;;;;;;;;;;5064933;28;20515;-73
2023/03/24 00:53:30;;;;;;;4.32;1.80;;;;;;;;;;5063765;28;20028;-73
2023/03/24 00:55:57;;;;;;;5.40;1.83;;;;;;;;;;5061575;28;20020;-73
2023/03/24 00:58:23;;;;;;;2.90;1.88;;;;;;;;;;5064876;28;20538;-73
2023/03/24 01:00:54;;;;;;;2.50;1.70;;;;;;;;;;5064205;28;20098;-73
2023/03/24 01:03:26;;;;;;;2.60;1.50;;;;;;;;;;5076347;28;20037;-73
2023/03/24 01:06:00;;;;;;;3.20;1.30;;;;;;;;;;5064401;28;20032;-73
2023/03/24 01:08:27;;;;;;;3.58;1.98;;;;;;;;;;5064003;28;20025;-73
2023/03/24 01:10:53;;;;;;;3.45;1.70;;;;;;;;;;5062067;28;20614;-73
2023/03/24 01:13:20;;;;;;;3.45;1.92;;;;;;;;;;5064424;28;20032;-73
2023/03/24 01:15:46;;;;;;;5.70;2.25;;;;;;;;;;5065148;28;20407;-73
2023/03/24 01:18:13;;;;;;;2.70;1.90;;;;;;;;;;5064421;28;20698;-73
2023/03/24 01:20:39;;;;;;;5.22;1.88;;;;;;;;;;5064815;28;20111;-73
2023/03/24 01:23:06;;;;;;;3.85;1.98;;;;;;;;;;5068327;28;20031;-73
2023/03/24 01:25:32;;;;;;;4.53;2.05;;;;;;;;;;5069187;28;20618;-73
2023/03/24 01:27:58;;;;;;;4.72;1.90;;;;;;;;;;5067140;28;20025;-73
2023/03/24 01:30:25;;;;;;;2.28;1.83;;;;;;;;;;5068398;28;20086;-73
2023/03/24 01:32:52;;;;;;;4.38;2.63;;;;;;;;;;5067896;28;20035;-73
2023/03/24 01:35:18;;;;;;;4.57;2.28;;;;;;;;;;5069438;28;20103;-73
2023/03/24 01:37:44;;;;;;;6.05;2.25;;;;;;;;;;5068871;28;20124;-73
2023/03/24 01:40:16;;;;;;;5.30;2.83;;;;;;;;;;5068511;28;20127;-73
2023/03/24 01:42:42;;;;;;;4.57;2.90;;;;;;;;;;5063801;28;20123;-74
2023/03/24 01:45:52;;;;;;;7.07;3.58;;;;;;;;;;5063932;28;20167;-73
2023/03/24 01:48:35;;;;;;;3.53;2.60;;;;;;;;;;5047589;28;20052;-73
2023/03/24 01:51:11;;;;;;;3.33;2.65;;;;;;;;;;5062759;28;20060;-73
2023/03/24 01:53:42;;;;;;;2.85;2.20;;;;;;;;;;5048196;28;20024;-73
2023/03/24 01:56:09;;;;;;;2.53;1.85;;;;;;;;;;5048907;28;20539;-73
2023/03/24 01:58:36;;;;;;;3.85;1.67;;;;;;;;;;5046124;28;20045;-73
2023/03/24 02:01:04;;;;;;;2.45;1.10;;;;;;;;;;5047906;28;20063;-73
2023/03/24 02:03:32;;;;;;;2.67;1.00;;;;;;;;;;5063232;28;20029;-73
2023/03/24 02:06:01;;;;;;;4.75;1.10;;;;;;;;;;5066692;28;20037;-73
2023/03/24 02:08:35;;;;;;;2.13;0.95;;;;;;;;;;5067446;28;20025;-74
2023/03/24 02:11:01;;;;;;;3.95;0.88;;;;;;;;;;5068501;28;20032;-73
2023/03/24 02:13:26;;;;;;;1.10;0.70;;;;;;;;;;5067615;28;20032;-73
2023/03/24 02:16:07;;;;;;;1.40;0.90;;;;;;;;;;5065442;28;20520;-73
2023/03/24 02:19:11;;;;;;;1.85;0.80;;;;;;;;;;5066446;28;20032;-73
2023/03/24 02:22:00;;;;;;;3.13;1.25;;;;;;;;;;5067813;28;20671;-73
2023/03/24 02:24:54;;;;;;;2.20;0.95;;;;;;;;;;5064627;28;20041;-73
2023/03/24 02:27:31;;;;;;;4.18;1.00;;;;;;;;;;5067887;28;20032;-73
2023/03/24 02:30:28;;;;;;;2.03;1.00;;;;;;;;;;5067492;28;20036;-73
2023/03/24 02:33:12;;;;;;;1.55;0.70;;;;;;;;;;5066263;28;20040;-73
2023/03/24 02:35:56;;;;;;;1.95;0.60;;;;;;;;;;5067695;28;20067;-73
2023/03/24 02:38:40;;;;;;;3.78;0.80;;;;;;;;;;5067929;28;20024;-73
2023/03/24 02:41:14;;;;;;;2.28;0.93;;;;;;;;;;5067019;28;20059;-74
2023/03/24 02:43:49;;;;;;;4.95;1.08;;;;;;;;;;5067522;28;20067;-74
2023/03/24 02:46:43;;;;;;;4.10;1.00;;;;;;;;;;5065836;28;20079;-74
2023/03/24 02:49:27;;;;;;;2.85;0.82;;;;;;;;;;5066929;28;20040;-73
2023/03/24 02:52:02;;;;;;;1.40;0.77;;;;;;;;;;5067409;28;20041;-74
2023/03/24 02:54:37;;;;;;;4.03;1.02;;;;;;;;;;5061008;28;20044;-74
2023/03/24 02:57:28;;;;;;;3.17;0.82;;;;;;;;;;5065698;28;20047;-74
2023/03/24 03:00:17;;;;;;;2.00;1.00;;;;;;;;;;5058758;28;20041;-73
2023/03/24 03:02:52;;;;;;;1.42;0.80;;;;;;;;;;5065290;28;20047;-73
2023/03/24 03:05:33;;;;;;;5.07;0.95;;;;;;;;;;5065526;28;20028;-74
2023/03/24 03:08:00;;;;;;;2.80;0.90;;;;;;;;;;5064733;28;20053;-74
2023/03/24 03:10:35;;;;;;;2.42;1.17;;;;;;;;;;5060686;28;20052;-74
2023/03/24 03:13:06;;;;;;;4.15;0.90;;;;;;;;;;5065429;28;20840;-74
2023/03/24 03:15:36;;;;;;;3.05;1.20;;;;;;;;;;5064928;28;20112;-73
2023/03/24 03:18:09;;;;;;;1.88;0.88;;;;;;;;;;5066615;28;20503;-73
2023/03/24 03:20:41;;;;;;;1.65;0.70;;;;;;;;;;5066111;28;20051;-73
2023/03/24 03:23:12;;;;;;;2.63;1.10;;;;;;;;;;5066711;28;20017;-74
2023/03/24 03:25:45;;;;;;;4.43;1.30;;;;;;;;;;5065418;28;20032;-74
2023/03/24 03:28:13;;;;;;;9.00;1.40;;;;;;;;;;5060102;28;20033;-74
2023/03/24 03:30:43;;;;;;;3.70;0.82;;;;;;;;;;5081162;28;20593;-74
2023/03/24 03:33:24;;;;;;;5.97;1.00;;;;;;;;;;5065735;28;20029;-74
2023/03/24 03:35:56;;;;;;;6.50;1.15;;;;;;;;;;5065560;28;20120;-74
2023/03/24 03:38:30;;;;;;;4.90;1.38;;;;;;;;;;5066534;28;20021;-74
2023/03/24 03:41:00;;;;;;;5.15;1.20;;;;;;;;;;5065439;28;20043;-74
2023/03/24 03:43:27;;;;;;;7.03;1.00;;;;;;;;;;5066613;28;20025;-74
2023/03/24 03:45:55;;;;;;;4.95;1.42;;;;;;;;;;5063378;28;20123;-74
2023/03/24 03:48:25;;;;;;;6.78;1.58;;;;;;;;;;5065470;28;20044;-74
2023/03/24 03:50:50;;;;;;;5.82;1.50;;;;;;;;;;5064103;28;20081;-74
2023/03/24 03:53:19;;;;;;;6.00;1.50;;;;;;;;;;5065591;28;20119;-75
2023/03/24 03:55:46;;;;;;;4.85;1.40;;;;;;;;;;5064017;28;20036;-74
2023/03/24 03:58:11;;;;;;;4.60;1.10;;;;;;;;;;5065127;28;20101;-74
2023/03/24 04:00:37;;;;;;;4.15;1.23;;;;;;;;;;5064026;28;20049;-74
2023/03/24 04:03:28;;;;;;;7.38;1.40;;;;;;;;;;5065833;28;20040;-74
2023/03/24 04:06:13;;;;;;;8.70;1.38;;;;;;;;;;5045864;28;20419;-74
2023/03/24 04:08:50;;;;;;;4.07;1.23;;;;;;;;;;5059659;28;20548;-74
2023/03/24 04:11:24;;;;;;;11.35;1.63;;;;;;;;;;5064563;28;20027;-74
2023/03/24 04:14:11;;;;;;;3.47;1.13;;;;;;;;;;5064726;28;20045;-74
2023/03/24 04:16:44;;;;;;;3.72;1.13;;;;;;;;;;5064961;28;20116;-74
2023/03/24 04:19:16;;;;;;;5.13;1.60;;;;;;;;;;5064715;28;20037;-74
2023/03/24 04:22:01;;;;;;;4.07;0.98;;;;;;;;;;5065436;28;20140;-74
2023/03/24 04:24:49;;;;;;;4.47;1.23;;;;;;;;;;5063752;28;20036;-74
2023/03/24 04:27:37;;;;;;;8.07;1.40;;;;;;;;;;5064974;28;20040;-74
2023/03/24 04:30:22;;;;;;;4.35;0.98;;;;;;;;;;5063890;28;20055;-74
2023/03/24 04:32:57;;;;;;;9.10;1.27;;;;;;;;;;5065200;28;20143;-74
2023/03/24 04:35:33;;;;;;;7.97;1.35;;;;;;;;;;5055423;28;20024;-74
2023/03/24 04:38:09;;;;;;;3.65;1.20;;;;;;;;;;5065105;28;20037;-74
2023/03/24 04:40:40;;;;;;;6.93;1.15;;;;;;;;;;5065032;28;20049;-74
2023/03/24 04:43:08;;;;;;;4.22;1.15;;;;;;;;;;5063244;28;20068;-74
2023/03/24 04:45:35;;;;;;;9.15;1.35;;;;;;;;;;5063449;28;20119;-74
2023/03/24 04:48:03;;;;;;;8.25;1.33;;;;;;;;;;5065186;28;20082;-74
2023/03/24 04:50:40;;;;;;;10.52;1.88;;;;;;;;;;5065276;28;20028;-74
2023/03/24 04:53:07;;;;;;;4.32;1.27;;;;;;;;;;5064261;28;20032;-74
2023/03/24 04:56:03;;;;;;;6.15;1.77;;;;;;;;;;5064154;28;20032;-74
2023/03/24 04:58:28;;;;;;;8.20;1.25;;;;;;;;;;5064649;28;20083;-74
2023/03/24 05:00:55;;;;;;;4.85;1.00;;;;;;;;;;5063346;28;20109;-73
2023/03/24 05:03:21;;;;;;;6.60;1.73;;;;;;;;;;5063192;28;20048;-74
2023/03/24 05:05:48;;;;;;;7.65;1.92;;;;;;;;;;5063530;28;20036;-74
2023/03/24 05:08:15;;;;;;;3.58;1.27;;;;;;;;;;5065230;28;20116;-74
2023/03/24 05:10:41;;;;;;;6.88;1.38;;;;;;;;;;5064973;28;20519;-74
2023/03/24 05:13:07;;;;;;;7.45;1.15;;;;;;;;;;5063033;28;20085;-74
2023/03/24 05:15:33;;;;;;;5.57;1.60;;;;;;;;;;5062142;28;20592;-74
2023/03/24 05:17:58;;;;;;;12.70;1.92;;;;;;;;;;5064362;28;20569;-74
2023/03/24 05:20:24;;;;;;;6.65;1.35;;;;;;;;;;5063403;28;20024;-74
2023/03/24 05:22:50;;;;;;;5.65;1.10;;;;;;;;;;5065544;28;20016;-74
2023/03/24 05:25:17;;;;;;;3.83;0.90;;;;;;;;;;5064664;28;20835;-74
2023/03/24 05:27:42;;;;;;;4.57;1.25;;;;;;;;;;5064183;28;20048;-74
2023/03/24 05:30:08;;;;;;;3.92;1.00;;;;;;;;;;5062054;28;20041;-74
2023/03/24 05:32:34;;;;;;;5.75;1.50;;;;;;;;;;5064153;28;20036;-73
2023/03/24 05:34:59;;;;;;;5.40;1.20;;;;;;;;;;5065401;28;20052;-74
2023/03/24 05:37:26;;;;;;;4.65;0.88;;;;;;;;;;5079736;28;20043;-74
2023/03/24 05:39:52;;;;;;;4.30;0.98;;;;;;;;;;5064156;28;20052;-74
2023/03/24 05:42:17;;;;;;;4.82;1.30;;;;;;;;;;5064669;28;20033;-74
2023/03/24 05:44:42;;;;;;;2.92;1.05;;;;;;;;;;5060700;28;20041;-74
2023/03/24 05:47:08;;;;;;;4.10;1.25;;;;;;;;;;5065459;28;20032;-74
2023/03/24 05:49:35;;;;;;;3.22;1.20;;;;;;;;;;5064070;28;20233;-74
2023/03/24 05:52:00;;;;;;;2.92;0.98;;;;;;;;;;5063342;28;20044;-74
2023/03/24 05:54:26;;;;;;;8.48;1.30;;;;;;;;;;5064159;28;20033;-74
2023/03/24 05:56:51;;;;;;;7.57;2.10;;;;;;;;;;5064634;28;20045;-74
2023/03/24 05:59:16;;;;;;;3.97;1.75;;;;;;;;;;5064380;28;20041;-74
2023/03/24 06:01:42;;;;;;;6.30;1.60;;;;;;;;;;5061570;28;20555;-73
2023/03/24 06:04:07;;;;;;;8.40;1.95;;;;;;;;;;5064450;28;20485;-74
2023/03/24 06:06:33;;;;;;;3.42;1.40;;;;;;;;;;5062465;28;20037;-73
2023/03/24 06:09:01;;;;;;;4.10;1.73;;;;;;;;;;5066435;28;20028;-74
2023/03/24 06:11:27;;;;;;;5.25;1.52;;;;;;;;;;5067668;28;20028;-74
2023/03/24 06:13:57;;;;;;;7.95;2.15;;;;;;;;;;5066519;28;20024;-73
2023/03/24 06:16:24;;;;;;;5.53;1.98;;;;;;;;;;5065590;28;20099;-74
2023/03/24 06:18:51;;;;;;;4.35;1.52;;;;;;;;;;5064910;28;20091;-73
2023/03/24 06:21:17;;;;;;;8.23;1.60;;;;;;;;;;5067601;28;20068;-73
2023/03/24 06:23:42;;;;;;;11.40;2.00;;;;;;;;;;5062702;28;20423;-73
2023/03/24 06:26:10;;;;;;;4.47;1.38;;;;;;;;;;5063025;28;20104;-73
2023/03/24 06:28:38;;;;;;;5.57;1.65;;;;;;;;;;5062592;28;20033;-73
2023/03/24 06:31:04;;;;;;;2.42;1.33;;;;;;;;;;5064629;28;20093;-73
2023/03/24 06:33:29;;;;;;;4.68;1.58;;;;;;;;;;5068006;28;20121;-73
2023/03/24 06:35:55;;;;;;;8.27;2.30;;;;;;;;;;5063688;28;20653;-72
2023/03/24 06:38:21;;;;;;;8.88;1.60;;;;;;;;;;5065211;28;20036;-73
2023/03/24 06:40:46;;;;;;;8.98;1.85;;;;;;;;;;5064861;28;20044;-73
2023/03/24 06:43:12;;;;;;;4.35;1.73;;;;;;;;;;5065983;28;20048;-73
2023/03/24 06:45:38;;;;;;;11.75;2.53;;;;;;;;;;5063657;28;20071;-73
2023/03/24 06:48:04;;;;;;;4.95;1.80;;;;;;;;;;5063649;28;20028;-73
2023/03/24 06:50:33;;;;;;;8.30;2.08;;;;;;;;;;5061652;28;20023;-73
2023/03/24 06:52:59;;;;;;;4.95;1.70;;;;;;;;;;5066578;28;20028;-73
2023/03/24 06:55:25;;;;;;;8.55;1.95;;;;;;;;;;5066834;28;20463;-73
2023/03/24 06:57:51;;;;;;;8.95;2.10;;;;;;;;;;5065327;28;20083;-73
2023/03/24 07:00:16;;;;;;;7.70;1.70;;;;;;;;;;5066301;28;20057;-73
2023/03/24 07:02:42;;;;;;;4.93;2.05;;;;;;;;;;5065933;28;20028;-73
2023/03/24 07:05:09;;;;;;;7.97;2.22;;;;;;;;;;5082817;28;20254;-74
2023/03/24 07:07:35;;;;;;;6.95;1.83;;;;;;;;;;5066727;28;20523;-73
2023/03/24 07:10:02;;;;;;;5.53;1.95;;;;;;;;;;5063258;28;20028;-73
2023/03/24 07:12:28;;;;;;;8.52;1.98;;;;;;;;;;5065561;28;20067;-73
2023/03/24 07:14:54;;;;;;;9.13;2.38;;;;;;;;;;5059687;28;20049;-74
2023/03/24 07:17:20;;;;;;;4.20;1.33;;;;;;;;;;5061029;28;20098;-74
2023/03/24 07:19:45;;;;;;;6.45;1.50;;;;;;;;;;5066293;28;20063;-74
2023/03/24 07:22:11;;;;;;;7.05;1.45;;;;;;;;;;5062446;28;20078;-74
2023/03/24 07:24:36;;;;;;;6.82;1.40;;;;;;;;;;5060474;28;20071;-74
2023/03/24 07:27:02;;;;;;;6.32;1.38;;;;;;;;;;5063423;28;20123;-74
2023/03/24 07:29:27;;;;;;;4.72;1.77;;;;;;;;;;5056088;28;20499;-74
2023/03/24 07:31:53;;;;;;;6.45;1.63;;;;;;;;;;5047114;28;20115;-74
2023/03/24 07:34:20;;;;;;;9.10;1.80;;;;;;;;;;5066912;28;20064;-73
2023/03/24 07:36:45;;;;;;;8.38;1.55;;;;;;;;;;5068255;28;20032;-74
2023/03/24 07:39:12;;;;;;;6.35;1.63;;;;;;;;;;5064963;28;20576;-74
2023/03/24 07:41:37;;;;;;;3.10;1.08;;;;;;;;;;5065458;28;20041;-74
2023/03/24 07:44:03;;;;;;;6.00;3.05;;;;;;;;;;5059846;28;20047;-74
2023/03/24 07:46:28;;;;;;;4.10;1.50;;;;;;;;;;5059740;28;20476;-74
2023/03/24 07:48:54;;;;;;;5.25;1.17;;;;;;;;;;5064996;28;20013;-74
2023/03/24 07:51:19;;;;;;;7.38;1.70;;;;;;;;;;5067305;28;20033;-74
2023/03/24 07:53:46;;;;;;;9.75;1.58;;;;;;;;;;5061057;28;20660;-74
2023/03/24 07:56:12;;;;;;;5.65;1.70;;;;;;;;;;5058349;28;20043;-74
2023/03/24 07:58:38;;;;;;;5.20;1.90;;;;;;;;;;5057845;28;20040;-75
2023/03/24 08:01:11;;;;;;;9.15;1.58;;;;;;;;;;5060840;28;20100;-74
2023/03/24 08:03:39;;;;;;;4.47;1.38;;;;;;;;;;5059287;28;20033;-74
2023/03/24 08:06:05;;;;;;;8.10;1.52;;;;;;;;;;5060797;28;20037;-74
2023/03/24 08:08:31;;;;;;;4.30;1.42;;;;;;;;;;5051738;28;20407;-74
2023/03/24 08:10:57;;;;;;;3.45;1.10;;;;;;;;;;5055302;28;20039;-74
2023/03/24 08:13:23;;;;;;;4.55;1.40;;;;;;;;;;5058003;28;20044;-74
2023/03/24 08:15:48;;;;;;;4.72;1.35;;;;;;;;;;5055222;28;20236;-74
2023/03/24 08:18:14;;;;;;;8.50;1.38;;;;;;;;;;5054735;28;20051;-74
2023/03/24 08:20:40;;;;;;;7.85;1.15;;;;;;;;;;5054394;28;20036;-74
2023/03/24 08:23:07;;;;;;;6.55;1.80;;;;;;;;;;5058992;28;20028;-73
2023/03/24 08:25:34;;;;;;;7.93;1.70;;;;;;;;;;5056706;28;20017;-74
2023/03/24 08:27:59;;;;;;;6.30;1.92;;;;;;;;;;5058342;28;20437;-74
2023/03/24 08:30:25;;;;;;;7.57;1.83;;;;;;;;;;5059253;28;20032;-74
2023/03/24 08:33:01;;;;;;;6.95;1.80;;;;;;;;;;5056710;28;20036;-74
2023/03/24 08:35:32;;;;;;;5.18;1.52;;;;;;;;;;5055492;28;20531;-75
2023/03/24 08:37:58;;;;;;;5.55;1.63;;;;;;;;;;5048099;28;20051;-74
2023/03/24 08:40:24;;;;;;;8.13;1.63;;;;;;;;;;5057720;28;20600;-75
2023/03/24 08:42:52;;;;;;;15.68;1.70;;;;;;;;;;5059306;28;20029;-74
2023/03/24 08:45:20;;;;;;;4.28;1.42;;;;;;;;;;5057117;28;20082;-75
2023/03/24 08:47:47;;;;;;;15.98;2.13;;;;;;;;;;5056617;28;20043;-75
2023/03/24 08:50:12;;;;;;;4.40;1.85;;;;;;;;;;5062034;28;20028;-74
2023/03/24 08:52:38;;;;;;;3.53;1.45;;;;;;;;;;5061741;28;20031;-73
2023/03/24 08:55:04;;;;;;;13.45;1.85;;;;;;;;;;5065138;28;20020;-73
2023/03/24 08:57:30;;;;;;;9.63;1.70;;;;;;;;;;5063797;28;20090;-74
2023/03/24 08:59:55;;;;;;;9.27;2.20;;;;;;;;;;5061484;28;20037;-74
2023/03/24 09:02:21;;;;;;;6.97;1.95;;;;;;;;;;5060451;28;20031;-73
2023/03/24 09:04:48;;;;;;;6.78;1.80;;;;;;;;;;5059633;28;20033;-74
2023/03/24 09:07:14;;;;;;;6.55;2.22;;;;;;;;;;5058661;28;20090;-74
2023/03/24 09:09:40;;;;;;;7.45;1.75;;;;;;;;;;5059903;28;20032;-74
2023/03/24 09:12:06;;;;;;;9.57;2.10;;;;;;;;;;5061358;28;20035;-74
2023/03/24 09:14:31;;;;;;;6.75;1.75;;;;;;;;;;5060952;28;20086;-74
2023/03/24 09:16:56;;;;;;;3.83;1.60;;;;;;;;;;5073794;28;20025;-74
2023/03/24 09:19:22;;;;;;;9.05;2.20;;;;;;;;;;5060807;28;20048;-74
2023/03/24 09:21:47;;;;;;;11.50;1.92;;;;;;;;;;5061614;28;20024;-74
2023/03/24 09:24:13;;;;;;;9.65;2.35;;;;;;;;;;5066371;28;20033;-74
2023/03/24 09:26:39;;;;;;;8.07;2.63;;;;;;;;;;5065610;28;20032;-74
2023/03/24 09:29:05;;;;;;;6.10;1.30;;;;;;;;;;5054314;28;20029;-75
2023/03/24 09:31:30;;;;;;;9.73;2.42;;;;;;;;;;5054145;28;20119;-74
2023/03/24 09:33:56;;;;;;;8.10;1.80;;;;;;;;;;5060773;28;20028;-74
2023/03/24 09:36:21;;;;;;;4.25;1.60;;;;;;;;;;5062899;28;20633;-73
2023/03/24 09:38:47;;;;;;;5.47;1.50;;;;;;;;;;5066039;28;20111;-74
2023/03/24 09:41:26;;;;;;;12.50;1.88;;;;;;;;;;5058832;28;20696;-75
2023/03/24 09:43:59;;;;;;;5.30;2.00;;;;;;;;;;5063498;28;20079;-74
2023/03/24 09:46:33;;;;;;;10.15;2.50;;;;;;;;;;5066999;28;20035;-74
2023/03/24 09:48:58;;;;;;;11.50;2.22;;;;;;;;;;5070022;28;20422;-74
2023/03/24 09:51:31;;;;;;;8.45;2.35;;;;;;;;;;5069201;28;20708;-74
2023/03/24 09:54:10;;;;;;;25.08;2.40;;;;;;;;;;5067918;28;20122;-74
2023/03/24 09:56:38;;;;;;;6.85;2.13;;;;;;;;;;5067287;28;20511;-74
2023/03/24 09:59:06;;;;;;;16.38;2.90;;;;;;;;;;5068823;28;20098;-74
2023/03/24 10:01:35;;;;;;;7.10;1.77;;;;;;;;;;5068995;28;20503;-74
2023/03/24 10:04:01;;;;;;;9.75;2.03;;;;;;;;;;5069142;28;20033;-74
2023/03/24 10:06:38;;;;;;;6.05;1.88;;;;;;;;;;5067450;28;20041;-74
2023/03/24 10:09:21;;;;;;;11.80;2.15;;;;;;;;;;5069173;28;20025;-74
2023/03/24 10:11:59;;;;;;;11.53;2.07;;;;;;;;;;5069104;28;20044;-74
2023/03/24 10:14:40;;;;;;;7.68;1.30;;;;;;;;;;5068073;28;20473;-74
2023/03/24 10:17:27;;;;;;;7.75;2.20;;;;;;;;;;5067906;28;20085;-74
2023/03/24 10:20:10;;;;;;;6.00;1.90;;;;;;;;;;5068567;28;20044;-74
2023/03/24 10:22:51;;;;;;;4.13;1.48;;;;;;;;;;5069183;28;20064;-74
2023/03/24 10:25:25;;;;;;;6.65;1.38;;;;;;;;;;5066398;28;20035;-74
2023/03/24 10:28:03;;;;;;;3.50;1.10;;;;;;;;;;5069310;28;20543;-74
2023/03/24 10:30:33;;;;;;;4.32;1.60;;;;;;;;;;5068423;28;20092;-74
2023/03/24 10:32:58;;;;;;;7.97;1.73;;;;;;;;;;5069259;28;20033;-74
2023/03/24 10:35:28;;;;;;;7.68;1.45;;;;;;;;;;5067263;28;20040;-74
2023/03/24 10:37:57;;;;;;;1.85;0.90;;;;;;;;;;5068374;28;20036;-74
2023/03/24 10:40:27;;;;;;;7.82;1.48;;;;;;;;;;5084228;28;20121;-74
2023/03/24 10:42:52;;;;;;;4.78;1.20;;;;;;;;;;5070611;28;20032;-74
2023/03/24 10:45:25;;;;;;;3.97;0.95;;;;;;;;;;5065712;28;20025;-74
2023/03/24 10:47:53;;;;;;;15.57;1.73;;;;;;;;;;5067769;28;20028;-74
2023/03/24 10:50:24;;;;;;;10.35;1.77;;;;;;;;;;5068435;28;20036;-74
2023/03/24 10:52:50;;;;;;;5.82;1.13;;;;;;;;;;5068585;28;20047;-73
2023/03/24 10:55:22;;;;;;;6.35;1.30;;;;;;;;;;5066008;28;20403;-74
2023/03/24 10:57:58;;;;;;;5.60;1.50;;;;;;;;;;5068501;28;20059;-74
2023/03/24 11:00:28;;;;;;;7.72;1.40;;;;;;;;;;5068187;28;20109;-74
2023/03/24 11:03:07;;;;;;;6.60;1.45;;;;;;;;;;5067260;28;20033;-74
2023/03/24 11:05:35;;;;;;;7.57;1.73;;;;;;;;;;5065048;28;20032;-74
2023/03/24 11:08:24;;;;;;;3.25;1.23;;;;;;;;;;5066628;28;20606;-74
2023/03/24 11:10:50;;;;;;;7.88;1.42;;;;;;;;;;5067957;28;20032;-74
2023/03/24 11:13:18;;;;;;;4.40;1.40;;;;;;;;;;5066432;28;20028;-74
2023/03/24 11:16:04;;;;;;;7.55;2.25;;;;;;;;;;5068464;28;20036;-74
2023/03/24 11:18:30;;;;;;;5.90;1.13;;;;;;;;;;5066486;28;20115;-74
2023/03/24 11:21:03;;;;;;;7.43;1.50;;;;;;;;;;5068354;28;20123;-74
2023/03/24 11:23:39;;;;;;;6.80;1.30;;;;;;;;;;5066401;28;20037;-74
2023/03/24 11:26:05;;;;;;;6.55;1.42;;;;;;;;;;5067884;28;20127;-74
2023/03/24 11:28:36;;;;;;;10.88;1.42;;;;;;;;;;5067801;28;20107;-74
2023/03/24 11:31:06;;;;;;;7.43;1.30;;;;;;;;;;5065779;28;20031;-74
2023/03/24 11:33:35;;;;;;;4.97;1.70;;;;;;;;;;5065931;28;20036;-73
2023/03/24 11:36:06;;;;;;;3.00;1.40;;;;;;;;;;5074836;28;20040;-74
2023/03/24 11:38:33;;;;;;;6.60;1.17;;;;;;;;;;5060980;28;20141;-73
2023/03/24 11:41:03;;;;;;;6.05;1.13;;;;;;;;;;5061098;28;20040;-73
2023/03/24 11:43:29;;;;;;;6.55;1.77;;;;;;;;;;5059550;28;20024;-74
2023/03/24 11:46:15;;;;;;;5.72;1.33;;;;;;;;;;5063098;28;20028;-74
2023/03/24 11:48:49;;;;;;;6.20;1.42;;;;;;;;;;5062268;28;20039;-73
2023/03/24 11:51:27;;;;;;;5.40;1.40;;;;;;;;;;5060870;28;20174;-73
2023/03/24 11:53:54;;;;;;;4.60;1.23;;;;;;;;;;5062144;28;20032;-74
2023/03/24 11:56:43;;;;;;;6.53;1.75;;;;;;;;;;5061518;28;20491;-73
2023/03/24 11:59:23;;;;;;;9.13;1.88;;;;;;;;;;5092745;28;20040;-73
2023/03/24 12:01:59;;;;;;;10.30;1.70;;;;;;;;;;5057876;28;20586;-73
2023/03/24 12:04:50;;;;;;;5.00;1.33;;;;;;;;;;5058078;28;20075;-73
2023/03/24 12:07:37;;;;;;;5.15;1.30;;;;;;;;;;5057774;28;20050;-74
2023/03/24 12:10:22;;;;;;;8.02;1.30;;;;;;;;;;5060551;28;20056;-74
2023/03/24 12:13:17;;;;;;;6.85;1.75;;;;;;;;;;5056058;28;20527;-73
2023/03/24 12:16:04;;;;;;;3.70;1.25;;;;;;;;;;5052068;28;20049;-74
2023/03/24 12:18:42;;;;;;;4.15;1.80;;;;;;;;;;5053530;28;20063;-74
2023/03/24 12:21:13;;;;;;;6.28;1.42;;;;;;;;;;5061726;28;20498;-74
2023/03/24 12:23:53;;;;;;;6.00;1.25;;;;;;;;;;5061102;28;20049;-74
2023/03/24 12:26:27;;;;;;;6.50;1.52;;;;;;;;;;5055888;28;20527;-74
2023/03/24 12:29:26;;;;;;;4.88;1.48;;;;;;;;;;5054512;28;20033;-74
2023/03/24 12:32:21;;;;;;;4.80;1.38;;;;;;;;;;5076277;28;20123;-74
2023/03/24 12:35:05;;;;;;;7.43;1.50;;;;;;;;;;5046204;28;20037;-74
2023/03/24 12:37:48;;;;;;;6.45;1.58;;;;;;;;;;5061332;28;20032;-74
2023/03/24 12:40:43;;;;;;;4.03;1.23;;;;;;;;;;5062855;28;20029;-74
2023/03/24 12:43:46;;;;;;;8.88;1.73;;;;;;;;;;5061530;28;20482;-74
2023/03/24 12:46:30;;;;;;;2.45;0.90;;;;;;;;;;5060239;28;20039;-74
2023/03/24 12:49:24;;;;;;;1.25;0.50;;;;;;;;;;5061344;28;20047;-73
2023/03/24 12:51:58;;;;;;;2.05;0.88;;;;;;;;;;5062803;28;20040;-73
2023/03/24 12:54:52;;;;;;;1.60;0.70;;;;;;;;;;5055379;28;20043;-73
2023/03/24 12:57:20;;;;;;;1.95;1.08;;;;;;;;;;5056418;28;20657;-73
2023/03/24 12:59:56;;;;;;;5.53;0.93;;;;;;;;;;5059919;28;20072;-73
2023/03/24 13:02:30;;;;;;;4.13;1.10;;;;;;;;;;5051701;28;20036;-80
2023/03/24 13:05:04;;;;;;;5.97;0.90;;;;;;;;;;5064881;28;20423;-73
2023/03/24 13:07:36;;;;;;;5.32;0.90;;;;;;;;;;5060153;28;20069;-72
2023/03/24 13:10:17;;;;;;;3.37;1.30;;;;;;;;;;5057825;28;20024;-73
2023/03/24 13:13:22;;;;;;;3.85;1.10;;;;;;;;;;5053340;28;20037;-72
2023/03/24 13:15:56;;;;;;;5.88;1.25;;;;;;;;;;5039023;28;20064;-73
2023/03/24 13:18:33;;;;;;;3.45;0.80;;;;;;;;;;5067992;28;20047;-73
2023/03/24 13:21:12;;;;;;;2.42;0.90;;;;;;;;;;5068292;28;20702;-72
2023/03/24 13:24:06;;;;;;;1.30;1.08;;;;;;;;;;5067216;28;20060;-72
2023/03/24 13:26:59;;;;;;;4.18;1.20;;;;;;;;;;5066816;28;20043;-72
2023/03/24 13:29:40;;;;;;;3.22;1.02;;;;;;;;;;5067044;28;20025;-72
2023/03/24 13:32:13;;;;;;;1.98;1.08;;;;;;;;;;5065956;28;20816;-73
2023/03/24 13:34:41;;;;;;;;;;;;;;;;;;5053339;28;20025;-71
2023/03/24 13:37:14;;;;;;;5.60;1.40;;;;;;;;;;5061086;28;19946;-72
2023/03/24 13:39:44;;;;;;;3.08;1.00;;;;;;;;;;5055758;28;20040;-72
2023/03/24 13:42:29;;;;;;;8.95;1.33;;;;;;;;;;5065750;28;20430;-73
2023/03/24 13:44:54;;;;;;;2.92;0.80;;;;;;;;;;5066305;28;20039;-72
2023/03/24 13:47:19;;;;;;;1.83;0.80;;;;;;;;;;5068324;28;20037;-72
2023/03/24 13:50:05;;;;;;;4.03;1.05;;;;;;;;;;5066660;28;20083;-72
2023/03/24 13:52:37;;;;;;;3.78;1.00;;;;;;;;;;5068142;28;20158;-72
2023/03/24 13:55:12;;;;;;;3.88;0.90;;;;;;;;;;5083070;28;20020;-72
2023/03/24 13:57:46;;;;;;;3.53;0.85;;;;;;;;;;5065087;28;20431;-73
2023/03/24 14:00:21;;;;;;;3.63;0.95;;;;;;;;;;5082556;28;20032;-72
2023/03/24 14:02:51;;;;;;;6.10;1.05;;;;;;;;;;5067139;28;20036;-72
2023/03/24 14:05:25;;;;;;;2.60;0.90;;;;;;;;;;5066166;28;20544;-72
2023/03/24 14:08:00;;;;;;;1.35;0.70;;;;;;;;;;5065348;28;20118;-72
2023/03/24 14:10:36;;;;;;;1.05;0.73;;;;;;;;;;5064912;28;20020;-72
2023/03/24 14:13:16;;;;;;;3.13;0.90;;;;;;;;;;5067542;28;20546;-72
2023/03/24 14:15:55;;;;;;;2.95;0.88;;;;;;;;;;5060908;28;20772;-72
2023/03/24 14:18:23;;;;;;;1.08;0.60;;;;;;;;;;5066015;28;20029;-72
2023/03/24 14:21:00;;;;;;;4.35;0.82;;;;;;;;;;5058003;28;20695;-72
2023/03/24 14:23:41;;;;;;;2.38;0.85;;;;;;;;;;5064313;28;20041;-72
2023/03/24 14:26:35;;;;;;;3.45;1.25;;;;;;;;;;5066313;28;20036;-72
2023/03/24 14:29:01;;;;;;;4.85;1.00;;;;;;;;;;5058552;28;20024;-72
2023/03/24 14:31:32;;;;;;;3.75;1.10;;;;;;;;;;5060158;28;20032;-72
2023/03/24 14:34:04;;;;;;;2.90;0.90;;;;;;;;;;5060944;28;20020;-71
2023/03/24 14:36:38;;;;;;;2.60;1.02;;;;;;;;;;5083980;28;20458;-72
2023/03/24 14:39:31;;;;;;;3.55;0.80;;;;;;;;;;5065274;28;20052;-73
2023/03/24 14:41:57;;;;;;;5.93;1.27;;;;;;;;;;5066555;28;20086;-72
2023/03/24 14:44:52;;;;;;;2.22;0.88;;;;;;;;;;5065094;28;20036;-72
2023/03/24 14:47:23;;;;;;;4.70;1.45;;;;;;;;;;5066203;28;20036;-72
2023/03/24 14:49:52;;;;;;;5.20;0.80;;;;;;;;;;5062400;28;20517;-72
2023/03/24 14:52:40;;;;;;;5.18;1.10;;;;;;;;;;5065827;28;20174;-71
2023/03/24 14:55:18;;;;;;;4.53;0.98;;;;;;;;;;5063103;28;20040;-71
2023/03/24 14:57:47;;;;;;;3.75;1.00;;;;;;;;;;5065258;28;20600;-71
2023/03/24 15:00:19;;;;;;;2.25;0.90;;;;;;;;;;5066739;28;20037;-72
2023/03/24 15:02:47;;;;;;;1.25;0.88;;;;;;;;;;5066817;28;20089;-73
2023/03/24 15:05:18;;;;;;;3.20;1.13;;;;;;;;;;5066232;28;20033;-73
2023/03/24 15:07:56;;;;;;;3.75;1.00;;;;;;;;;;5061803;28;20040;-73
2023/03/24 15:10:22;;;;;;;6.18;1.23;;;;;;;;;;5062051;28;20024;-73
2023/03/24 15:12:49;;;;;;;3.63;1.15;;;;;;;;;;5064774;28;20032;-73